sensor_id;sensor_type;location;lat;lon;timestamp;P1;durP1;ratioP1;P2;durP2;ratioP2
4704;SDS011;2366;51.332;6.610;2023-03-21T00:01:03;13.73;;;6.83;;
4704;SDS011;2366;51.332;6.610;2023-03-21T00:03:30;14.07;;;6.97;;
4704;SDS011;2366;51.332;6.610;2023-03-21T00:05:56;13.20;;;6.18;;
4704;SDS011;2366;51.332;6.610;2023-03-21T00:08:23;13.47;;;5.83;;
4704;SDS011;2366;51.332;6.610;2023-03-21T00:10:56;13.32;;;5.70;;
4704;SDS011;2366;51.332;6.610;2023-03-21T00:13:23;20.10;;;6.68;;
4704;SDS011;2366;51.332;6.610;2023-03-21T00:15:50;12.80;;;5.78;;
4704;SDS011;2366;51.332;6.610;2023-03-21T00:18:18;9.10;;;5.93;;
4704;SDS011;2366;51.332;6.610;2023-03-21T00:21:00;11.60;;;6.65;;
4704;SDS011;2366;51.332;6.610;2023-03-21T00:23:27;14.05;;;6.32;;
4704;SDS011;2366;51.332;6.610;2023-03-21T00:25:53;17.27;;;6.10;;
4704;SDS011;2366;51.332;6.610;2023-03-21T00:28:19;18.40;;;7.10;;
4704;SDS011;2366;51.332;6.610;2023-03-21T00:30:45;18.90;;;6.40;;
4704;SDS011;2366;51.332;6.610;2023-03-21T00:33:11;12.10;;;5.90;;
4704;SDS011;2366;51.332;6.610;2023-03-21T00:35:37;10.15;;;5.13;;
4704;SDS011;2366;51.332;6.610;2023-03-21T00:38:06;20.10;;;5.82;;
4704;SDS011;2366;51.332;6.610;2023-03-21T00:40:31;8.83;;;4.60;;
4704;SDS011;2366;51.332;6.610;2023-03-21T00:42:57;15.33;;;6.03;;
4704;SDS011;2366;51.332;6.610;2023-03-21T00:45:22;14.43;;;5.87;;
4704;SDS011;2366;51.332;6.610;2023-03-21T00:47:47;11.33;;;5.43;;
4704;SDS011;2366;51.332;6.610;2023-03-21T00:50:13;13.97;;;6.83;;
4704;SDS011;2366;51.332;6.610;2023-03-21T00:52:38;10.77;;;6.13;;
4704;SDS011;2366;51.332;6.610;2023-03-21T00:55:04;9.47;;;5.57;;
4704;SDS011;2366;51.332;6.610;2023-03-21T00:57:30;14.60;;;7.00;;
4704;SDS011;2366;51.332;6.610;2023-03-21T00:59:55;10.37;;;5.60;;
4704;SDS011;2366;51.332;6.610;2023-03-21T01:02:22;20.58;;;6.75;;
4704;SDS011;2366;51.332;6.610;2023-03-21T01:04:51;14.82;;;6.55;;
4704;SDS011;2366;51.332;6.610;2023-03-21T01:07:19;14.85;;;6.50;;
4704;SDS011;2366;51.332;6.610;2023-03-21T01:09:45;12.57;;;6.07;;
4704;SDS011;2366;51.332;6.610;2023-03-21T01:12:10;16.67;;;5.97;;
4704;SDS011;2366;51.332;6.610;2023-03-21T01:14:36;21.53;;;6.40;;
4704;SDS011;2366;51.332;6.610;2023-03-21T01:17:02;14.93;;;7.23;;
4704;SDS011;2366;51.332;6.610;2023-03-21T01:19:28;10.80;;;6.30;;
4704;SDS011;2366;51.332;6.610;2023-03-21T01:21:54;18.65;;;6.40;;
4704;SDS011;2366;51.332;6.610;2023-03-21T01:24:20;13.70;;;6.22;;
4704;SDS011;2366;51.332;6.610;2023-03-21T01:26:46;14.57;;;7.10;;
4704;SDS011;2366;51.332;6.610;2023-03-21T01:29:11;10.37;;;6.63;;
4704;SDS011;2366;51.332;6.610;2023-03-21T01:31:37;16.03;;;6.23;;
4704;SDS011;2366;51.332;6.610;2023-03-21T01:34:03;15.53;;;6.77;;
4704;SDS011;2366;51.332;6.610;2023-03-21T01:36:28;15.83;;;6.00;;
4704;SDS011;2366;51.332;6.610;2023-03-21T01:38:54;25.00;;;7.40;;
4704;SDS011;2366;51.332;6.610;2023-03-21T01:43:55;17.58;;;8.30;;
4704;SDS011;2366;51.332;6.610;2023-03-21T01:46:27;18.45;;;8.60;;
4704;SDS011;2366;51.332;6.610;2023-03-21T01:51:35;19.10;;;8.68;;
4704;SDS011;2366;51.332;6.610;2023-03-21T01:54:04;21.50;;;9.30;;
4704;SDS011;2366;51.332;6.610;2023-03-21T01:56:42;17.92;;;8.70;;
4704;SDS011;2366;51.332;6.610;2023-03-21T01:59:11;22.67;;;8.57;;
4704;SDS011;2366;51.332;6.610;2023-03-21T02:01:45;17.55;;;7.90;;
4704;SDS011;2366;51.332;6.610;2023-03-21T02:04:11;20.77;;;8.30;;
4704;SDS011;2366;51.332;6.610;2023-03-21T02:06:39;19.10;;;9.20;;
4704;SDS011;2366;51.332;6.610;2023-03-21T02:09:31;24.35;;;10.48;;
4704;SDS011;2366;51.332;6.610;2023-03-21T02:11:59;17.00;;;9.10;;
4704;SDS011;2366;51.332;6.610;2023-03-21T02:14:25;23.85;;;8.30;;
4704;SDS011;2366;51.332;6.610;2023-03-21T02:17:00;17.52;;;8.10;;
4704;SDS011;2366;51.332;6.610;2023-03-21T02:24:59;25.13;;;9.57;;
4704;SDS011;2366;51.332;6.610;2023-03-21T02:27:31;23.85;;;8.98;;
4704;SDS011;2366;51.332;6.610;2023-03-21T02:30:50;28.77;;;10.40;;
4704;SDS011;2366;51.332;6.610;2023-03-21T02:33:00;19.45;;;9.75;;
4704;SDS011;2366;51.332;6.610;2023-03-21T02:35:57;17.17;;;8.23;;
4704;SDS011;2366;51.332;6.610;2023-03-21T02:38:41;17.10;;;9.45;;
4704;SDS011;2366;51.332;6.610;2023-03-21T02:41:17;21.17;;;7.72;;
4704;SDS011;2366;51.332;6.610;2023-03-21T02:43:55;23.23;;;9.50;;
4704;SDS011;2366;51.332;6.610;2023-03-21T02:46:29;17.48;;;9.15;;
4704;SDS011;2366;51.332;6.610;2023-03-21T02:49:10;20.38;;;10.20;;
4704;SDS011;2366;51.332;6.610;2023-03-21T02:52:05;17.88;;;9.07;;
4704;SDS011;2366;51.332;6.610;2023-03-21T02:54:33;24.05;;;10.80;;
4704;SDS011;2366;51.332;6.610;2023-03-21T02:57:00;17.52;;;9.27;;
4704;SDS011;2366;51.332;6.610;2023-03-21T02:59:28;14.65;;;8.38;;
4704;SDS011;2366;51.332;6.610;2023-03-21T03:01:55;20.23;;;9.25;;
4704;SDS011;2366;51.332;6.610;2023-03-21T03:04:23;16.20;;;10.63;;
4704;SDS011;2366;51.332;6.610;2023-03-21T03:09:54;19.55;;;8.93;;
4704;SDS011;2366;51.332;6.610;2023-03-21T03:12:47;16.05;;;8.88;;
4704;SDS011;2366;51.332;6.610;2023-03-21T03:15:26;20.17;;;9.82;;
4704;SDS011;2366;51.332;6.610;2023-03-21T03:18:34;18.08;;;9.10;;
4704;SDS011;2366;51.332;6.610;2023-03-21T03:23:57;15.65;;;8.48;;
4704;SDS011;2366;51.332;6.610;2023-03-21T03:26:35;13.55;;;8.85;;
4704;SDS011;2366;51.332;6.610;2023-03-21T03:29:07;17.73;;;8.95;;
4704;SDS011;2366;51.332;6.610;2023-03-21T03:31:40;26.42;;;9.43;;
4704;SDS011;2366;51.332;6.610;2023-03-21T03:34:11;23.08;;;9.80;;
4704;SDS011;2366;51.332;6.610;2023-03-21T03:36:41;21.27;;;9.23;;
4704;SDS011;2366;51.332;6.610;2023-03-21T03:39:12;23.08;;;8.88;;
4704;SDS011;2366;51.332;6.610;2023-03-21T03:41:40;13.77;;;9.05;;
4704;SDS011;2366;51.332;6.610;2023-03-21T03:44:10;22.00;;;9.20;;
4704;SDS011;2366;51.332;6.610;2023-03-21T03:46:39;23.40;;;9.23;;
4704;SDS011;2366;51.332;6.610;2023-03-21T03:49:12;23.08;;;8.95;;
4704;SDS011;2366;51.332;6.610;2023-03-21T03:51:43;25.42;;;10.75;;
4704;SDS011;2366;51.332;6.610;2023-03-21T03:54:18;13.65;;;8.27;;
4704;SDS011;2366;51.332;6.610;2023-03-21T03:56:48;14.57;;;9.43;;
4704;SDS011;2366;51.332;6.610;2023-03-21T03:59:15;26.38;;;9.65;;
4704;SDS011;2366;51.332;6.610;2023-03-21T04:01:45;13.02;;;7.70;;
4704;SDS011;2366;51.332;6.610;2023-03-21T04:04:11;16.53;;;9.40;;
4704;SDS011;2366;51.332;6.610;2023-03-21T04:06:37;18.63;;;8.60;;
4704;SDS011;2366;51.332;6.610;2023-03-21T04:09:03;21.63;;;9.93;;
4704;SDS011;2366;51.332;6.610;2023-03-21T04:11:29;18.95;;;9.60;;
4704;SDS011;2366;51.332;6.610;2023-03-21T04:13:54;17.10;;;7.70;;
4704;SDS011;2366;51.332;6.610;2023-03-21T04:16:19;19.10;;;9.60;;
4704;SDS011;2366;51.332;6.610;2023-03-21T04:18:45;22.50;;;10.13;;
4704;SDS011;2366;51.332;6.610;2023-03-21T04:21:12;19.67;;;9.57;;
4704;SDS011;2366;51.332;6.610;2023-03-21T04:23:38;15.90;;;9.00;;
4704;SDS011;2366;51.332;6.610;2023-03-21T04:26:04;16.65;;;9.25;;
4704;SDS011;2366;51.332;6.610;2023-03-21T04:28:30;18.80;;;9.90;;
4704;SDS011;2366;51.332;6.610;2023-03-21T04:30:57;36.55;;;11.65;;
4704;SDS011;2366;51.332;6.610;2023-03-21T04:33:23;23.45;;;10.43;;
4704;SDS011;2366;51.332;6.610;2023-03-21T04:35:50;22.92;;;9.60;;
4704;SDS011;2366;51.332;6.610;2023-03-21T04:38:20;23.92;;;10.65;;
4704;SDS011;2366;51.332;6.610;2023-03-21T04:40:47;27.15;;;10.60;;
4704;SDS011;2366;51.332;6.610;2023-03-21T04:43:12;18.63;;;10.77;;
4704;SDS011;2366;51.332;6.610;2023-03-21T04:45:37;16.40;;;9.70;;
4704;SDS011;2366;51.332;6.610;2023-03-21T04:48:03;26.00;;;10.53;;
4704;SDS011;2366;51.332;6.610;2023-03-21T04:50:28;15.57;;;9.63;;
4704;SDS011;2366;51.332;6.610;2023-03-21T04:52:54;32.60;;;9.17;;
4704;SDS011;2366;51.332;6.610;2023-03-21T04:55:19;20.23;;;10.53;;
4704;SDS011;2366;51.332;6.610;2023-03-21T04:57:45;20.03;;;9.63;;
4704;SDS011;2366;51.332;6.610;2023-03-21T05:00:11;23.30;;;10.37;;
4704;SDS011;2366;51.332;6.610;2023-03-21T05:02:40;16.70;;;9.40;;
4704;SDS011;2366;51.332;6.610;2023-03-21T05:05:05;19.53;;;10.20;;
4704;SDS011;2366;51.332;6.610;2023-03-21T05:07:35;22.88;;;11.23;;
4704;SDS011;2366;51.332;6.610;2023-03-21T05:10:01;26.38;;;9.35;;
4704;SDS011;2366;51.332;6.610;2023-03-21T05:12:27;14.10;;;9.10;;
4704;SDS011;2366;51.332;6.610;2023-03-21T05:14:52;23.53;;;10.70;;
4704;SDS011;2366;51.332;6.610;2023-03-21T05:17:18;14.80;;;11.23;;
4704;SDS011;2366;51.332;6.610;2023-03-21T05:19:47;21.63;;;9.45;;
4704;SDS011;2366;51.332;6.610;2023-03-21T05:22:14;20.05;;;10.27;;
4704;SDS011;2366;51.332;6.610;2023-03-21T05:24:43;30.25;;;9.70;;
4704;SDS011;2366;51.332;6.610;2023-03-21T05:27:14;24.50;;;10.63;;
4704;SDS011;2366;51.332;6.610;2023-03-21T05:30:06;17.20;;;10.55;;
4704;SDS011;2366;51.332;6.610;2023-03-21T05:32:34;17.23;;;10.15;;
4704;SDS011;2366;51.332;6.610;2023-03-21T05:35:00;19.87;;;10.17;;
4704;SDS011;2366;51.332;6.610;2023-03-21T05:37:25;21.07;;;9.40;;
4704;SDS011;2366;51.332;6.610;2023-03-21T05:39:51;22.40;;;9.50;;
4704;SDS011;2366;51.332;6.610;2023-03-21T05:42:17;13.97;;;9.40;;
4704;SDS011;2366;51.332;6.610;2023-03-21T05:44:42;17.73;;;10.47;;
4704;SDS011;2366;51.332;6.610;2023-03-21T05:47:09;26.30;;;10.38;;
4704;SDS011;2366;51.332;6.610;2023-03-21T05:49:35;28.17;;;9.73;;
4704;SDS011;2366;51.332;6.610;2023-03-21T05:52:00;23.47;;;9.37;;
4704;SDS011;2366;51.332;6.610;2023-03-21T05:54:26;16.10;;;9.77;;
4704;SDS011;2366;51.332;6.610;2023-03-21T05:56:51;26.07;;;10.27;;
4704;SDS011;2366;51.332;6.610;2023-03-21T05:59:17;16.10;;;9.20;;
4704;SDS011;2366;51.332;6.610;2023-03-21T06:01:42;26.10;;;9.20;;
4704;SDS011;2366;51.332;6.610;2023-03-21T06:04:07;25.70;;;10.80;;
4704;SDS011;2366;51.332;6.610;2023-03-21T06:06:34;17.98;;;10.00;;
4704;SDS011;2366;51.332;6.610;2023-03-21T06:08:59;18.77;;;10.57;;
4704;SDS011;2366;51.332;6.610;2023-03-21T06:11:26;21.50;;;9.40;;
4704;SDS011;2366;51.332;6.610;2023-03-21T06:13:54;28.05;;;8.93;;
4704;SDS011;2366;51.332;6.610;2023-03-21T06:16:20;24.13;;;8.90;;
4704;SDS011;2366;51.332;6.610;2023-03-21T06:18:45;24.53;;;9.97;;
4704;SDS011;2366;51.332;6.610;2023-03-21T06:21:11;19.27;;;9.80;;
4704;SDS011;2366;51.332;6.610;2023-03-21T06:23:36;19.93;;;10.07;;
4704;SDS011;2366;51.332;6.610;2023-03-21T06:26:02;19.20;;;9.87;;
4704;SDS011;2366;51.332;6.610;2023-03-21T06:28:28;25.67;;;10.15;;
4704;SDS011;2366;51.332;6.610;2023-03-21T06:30:54;18.47;;;9.90;;
4704;SDS011;2366;51.332;6.610;2023-03-21T06:33:19;23.43;;;10.70;;
4704;SDS011;2366;51.332;6.610;2023-03-21T06:35:49;21.63;;;11.00;;
4704;SDS011;2366;51.332;6.610;2023-03-21T06:38:18;20.45;;;9.98;;
4704;SDS011;2366;51.332;6.610;2023-03-21T06:40:44;16.77;;;9.17;;
4704;SDS011;2366;51.332;6.610;2023-03-21T06:43:11;16.77;;;9.70;;
4704;SDS011;2366;51.332;6.610;2023-03-21T06:45:37;20.23;;;11.20;;
4704;SDS011;2366;51.332;6.610;2023-03-21T06:48:02;20.60;;;9.23;;
4704;SDS011;2366;51.332;6.610;2023-03-21T06:50:27;15.10;;;9.27;;
4704;SDS011;2366;51.332;6.610;2023-03-21T06:52:53;16.47;;;9.60;;
4704;SDS011;2366;51.332;6.610;2023-03-21T06:55:18;20.83;;;9.93;;
4704;SDS011;2366;51.332;6.610;2023-03-21T06:57:50;23.00;;;10.65;;
4704;SDS011;2366;51.332;6.610;2023-03-21T07:00:15;25.77;;;9.73;;
4704;SDS011;2366;51.332;6.610;2023-03-21T07:02:42;23.10;;;8.77;;
4704;SDS011;2366;51.332;6.610;2023-03-21T07:05:07;18.70;;;9.93;;
4704;SDS011;2366;51.332;6.610;2023-03-21T07:07:33;20.80;;;8.20;;
4704;SDS011;2366;51.332;6.610;2023-03-21T07:09:58;13.77;;;8.17;;
4704;SDS011;2366;51.332;6.610;2023-03-21T07:12:24;15.60;;;9.47;;
4704;SDS011;2366;51.332;6.610;2023-03-21T07:14:49;18.83;;;9.17;;
4704;SDS011;2366;51.332;6.610;2023-03-21T07:17:15;15.43;;;7.60;;
4704;SDS011;2366;51.332;6.610;2023-03-21T07:19:40;17.40;;;8.47;;
4704;SDS011;2366;51.332;6.610;2023-03-21T07:22:05;29.60;;;8.03;;
4704;SDS011;2366;51.332;6.610;2023-03-21T07:24:31;28.03;;;8.50;;
4704;SDS011;2366;51.332;6.610;2023-03-21T07:26:56;17.50;;;7.10;;
4704;SDS011;2366;51.332;6.610;2023-03-21T07:29:21;20.77;;;7.37;;
4704;SDS011;2366;51.332;6.610;2023-03-21T07:31:47;16.27;;;7.57;;
4704;SDS011;2366;51.332;6.610;2023-03-21T07:34:13;15.13;;;7.68;;
4704;SDS011;2366;51.332;6.610;2023-03-21T07:36:40;14.10;;;7.68;;
4704;SDS011;2366;51.332;6.610;2023-03-21T07:39:06;13.30;;;6.90;;
4704;SDS011;2366;51.332;6.610;2023-03-21T07:41:31;19.13;;;8.33;;
4704;SDS011;2366;51.332;6.610;2023-03-21T07:43:57;22.30;;;8.10;;
4704;SDS011;2366;51.332;6.610;2023-03-21T07:46:22;16.37;;;8.07;;
4704;SDS011;2366;51.332;6.610;2023-03-21T07:48:47;9.90;;;6.90;;
4704;SDS011;2366;51.332;6.610;2023-03-21T07:51:13;14.23;;;6.70;;
4704;SDS011;2366;51.332;6.610;2023-03-21T07:53:38;13.60;;;6.60;;
4704;SDS011;2366;51.332;6.610;2023-03-21T07:56:05;15.68;;;7.50;;
4704;SDS011;2366;51.332;6.610;2023-03-21T07:58:32;14.48;;;6.78;;
4704;SDS011;2366;51.332;6.610;2023-03-21T08:00:58;15.80;;;7.15;;
4704;SDS011;2366;51.332;6.610;2023-03-21T08:03:24;19.10;;;7.28;;
4704;SDS011;2366;51.332;6.610;2023-03-21T08:05:53;14.88;;;6.25;;
4704;SDS011;2366;51.332;6.610;2023-03-21T08:08:18;12.10;;;6.63;;
4704;SDS011;2366;51.332;6.610;2023-03-21T08:10:44;11.00;;;6.07;;
4704;SDS011;2366;51.332;6.610;2023-03-21T08:13:09;16.73;;;5.20;;
4704;SDS011;2366;51.332;6.610;2023-03-21T08:15:35;12.60;;;5.93;;
4704;SDS011;2366;51.332;6.610;2023-03-21T08:18:01;10.00;;;5.25;;
4704;SDS011;2366;51.332;6.610;2023-03-21T08:20:27;12.43;;;5.20;;
4704;SDS011;2366;51.332;6.610;2023-03-21T08:22:52;8.40;;;5.30;;
4704;SDS011;2366;51.332;6.610;2023-03-21T08:25:18;12.60;;;6.73;;
4704;SDS011;2366;51.332;6.610;2023-03-21T08:27:45;12.82;;;5.68;;
4704;SDS011;2366;51.332;6.610;2023-03-21T08:30:12;10.25;;;5.93;;
4704;SDS011;2366;51.332;6.610;2023-03-21T08:32:40;11.55;;;5.32;;
4704;SDS011;2366;51.332;6.610;2023-03-21T08:35:07;7.33;;;5.23;;
4704;SDS011;2366;51.332;6.610;2023-03-21T08:37:34;9.40;;;4.93;;
4704;SDS011;2366;51.332;6.610;2023-03-21T08:40:00;8.85;;;4.43;;
4704;SDS011;2366;51.332;6.610;2023-03-21T08:42:26;8.50;;;4.77;;
4704;SDS011;2366;51.332;6.610;2023-03-21T08:44:51;9.80;;;4.87;;
4704;SDS011;2366;51.332;6.610;2023-03-21T08:47:16;8.97;;;5.40;;
4704;SDS011;2366;51.332;6.610;2023-03-21T08:49:42;15.53;;;5.70;;
4704;SDS011;2366;51.332;6.610;2023-03-21T08:52:09;22.60;;;6.32;;
4704;SDS011;2366;51.332;6.610;2023-03-21T08:54:37;13.30;;;5.65;;
4704;SDS011;2366;51.332;6.610;2023-03-21T08:57:02;9.30;;;5.60;;
4704;SDS011;2366;51.332;6.610;2023-03-21T08:59:28;17.13;;;7.80;;
4704;SDS011;2366;51.332;6.610;2023-03-21T09:01:53;13.50;;;6.90;;
4704;SDS011;2366;51.332;6.610;2023-03-21T09:04:20;11.10;;;7.80;;
4704;SDS011;2366;51.332;6.610;2023-03-21T09:06:45;11.57;;;7.70;;
4704;SDS011;2366;51.332;6.610;2023-03-21T09:09:12;12.18;;;7.65;;
4704;SDS011;2366;51.332;6.610;2023-03-21T09:11:38;13.53;;;7.97;;
4704;SDS011;2366;51.332;6.610;2023-03-21T09:14:04;18.00;;;7.60;;
4704;SDS011;2366;51.332;6.610;2023-03-21T09:16:29;19.40;;;10.07;;
4704;SDS011;2366;51.332;6.610;2023-03-21T09:18:56;16.10;;;7.43;;
4704;SDS011;2366;51.332;6.610;2023-03-21T09:21:23;11.13;;;7.00;;
4704;SDS011;2366;51.332;6.610;2023-03-21T09:23:52;20.10;;;7.72;;
4704;SDS011;2366;51.332;6.610;2023-03-21T09:26:19;13.45;;;8.43;;
4704;SDS011;2366;51.332;6.610;2023-03-21T09:28:45;15.75;;;8.70;;
4704;SDS011;2366;51.332;6.610;2023-03-21T09:31:11;14.60;;;7.97;;
4704;SDS011;2366;51.332;6.610;2023-03-21T09:33:40;14.38;;;7.78;;
4704;SDS011;2366;51.332;6.610;2023-03-21T09:36:09;13.80;;;9.00;;
4704;SDS011;2366;51.332;6.610;2023-03-21T09:38:37;12.77;;;7.55;;
4704;SDS011;2366;51.332;6.610;2023-03-21T09:44:08;16.15;;;8.75;;
4704;SDS011;2366;51.332;6.610;2023-03-21T09:46:42;23.52;;;8.70;;
4704;SDS011;2366;51.332;6.610;2023-03-21T09:49:26;19.35;;;8.23;;
4704;SDS011;2366;51.332;6.610;2023-03-21T09:51:57;20.67;;;7.85;;
4704;SDS011;2366;51.332;6.610;2023-03-21T09:54:25;18.02;;;8.10;;
4704;SDS011;2366;51.332;6.610;2023-03-21T09:56:55;19.73;;;9.75;;
4704;SDS011;2366;51.332;6.610;2023-03-21T09:59:30;11.27;;;8.13;;
4704;SDS011;2366;51.332;6.610;2023-03-21T10:02:19;16.52;;;7.50;;
4704;SDS011;2366;51.332;6.610;2023-03-21T10:04:44;17.02;;;10.25;;
4704;SDS011;2366;51.332;6.610;2023-03-21T10:07:10;18.95;;;8.25;;
4704;SDS011;2366;51.332;6.610;2023-03-21T10:09:42;15.57;;;8.48;;
4704;SDS011;2366;51.332;6.610;2023-03-21T10:12:14;17.98;;;8.35;;
4704;SDS011;2366;51.332;6.610;2023-03-21T10:14:47;25.48;;;9.65;;
4704;SDS011;2366;51.332;6.610;2023-03-21T10:20:18;18.60;;;10.82;;
4704;SDS011;2366;51.332;6.610;2023-03-21T10:22:50;19.83;;;11.45;;
4704;SDS011;2366;51.332;6.610;2023-03-21T10:25:18;29.52;;;13.85;;
4704;SDS011;2366;51.332;6.610;2023-03-21T10:27:46;14.95;;;8.65;;
4704;SDS011;2366;51.332;6.610;2023-03-21T10:30:27;13.18;;;8.65;;
4704;SDS011;2366;51.332;6.610;2023-03-21T10:32:59;15.65;;;9.35;;
4704;SDS011;2366;51.332;6.610;2023-03-21T10:35:29;17.65;;;9.23;;
4704;SDS011;2366;51.332;6.610;2023-03-21T10:37:57;24.13;;;9.60;;
4704;SDS011;2366;51.332;6.610;2023-03-21T10:40:24;14.82;;;9.15;;
4704;SDS011;2366;51.332;6.610;2023-03-21T10:42:50;16.73;;;9.23;;
4704;SDS011;2366;51.332;6.610;2023-03-21T10:45:18;22.15;;;8.85;;
4704;SDS011;2366;51.332;6.610;2023-03-21T10:47:46;16.02;;;9.80;;
4704;SDS011;2366;51.332;6.610;2023-03-21T10:50:14;21.83;;;8.48;;
4704;SDS011;2366;51.332;6.610;2023-03-21T10:52:45;25.92;;;10.63;;
4704;SDS011;2366;51.332;6.610;2023-03-21T10:55:25;20.60;;;8.77;;
4704;SDS011;2366;51.332;6.610;2023-03-21T10:58:00;17.90;;;8.55;;
4704;SDS011;2366;51.332;6.610;2023-03-21T11:00:28;20.67;;;9.15;;
4704;SDS011;2366;51.332;6.610;2023-03-21T11:02:59;9.02;;;7.68;;
4704;SDS011;2366;51.332;6.610;2023-03-21T11:05:40;20.45;;;9.13;;
4704;SDS011;2366;51.332;6.610;2023-03-21T11:08:10;13.93;;;6.95;;
4704;SDS011;2366;51.332;6.610;2023-03-21T11:10:49;13.23;;;8.07;;
4704;SDS011;2366;51.332;6.610;2023-03-21T11:13:17;15.20;;;8.85;;
4704;SDS011;2366;51.332;6.610;2023-03-21T11:15:52;24.75;;;8.05;;
4704;SDS011;2366;51.332;6.610;2023-03-21T11:20:56;15.25;;;8.15;;
4704;SDS011;2366;51.332;6.610;2023-03-21T11:23:28;16.85;;;8.02;;
4704;SDS011;2366;51.332;6.610;2023-03-21T11:25:55;12.60;;;7.40;;
4704;SDS011;2366;51.332;6.610;2023-03-21T11:28:24;20.30;;;7.35;;
4704;SDS011;2366;51.332;6.610;2023-03-21T11:30:58;13.88;;;6.75;;
4704;SDS011;2366;51.332;6.610;2023-03-21T11:36:25;10.32;;;5.93;;
4704;SDS011;2366;51.332;6.610;2023-03-21T11:38:58;14.25;;;7.95;;
4704;SDS011;2366;51.332;6.610;2023-03-21T11:41:36;16.65;;;6.18;;
4704;SDS011;2366;51.332;6.610;2023-03-21T11:44:04;13.50;;;6.90;;
4704;SDS011;2366;51.332;6.610;2023-03-21T11:46:30;12.40;;;6.20;;
4704;SDS011;2366;51.332;6.610;2023-03-21T11:48:56;13.80;;;7.00;;
4704;SDS011;2366;51.332;6.610;2023-03-21T12:00:16;9.10;;;5.88;;
4704;SDS011;2366;51.332;6.610;2023-03-21T12:03:02;11.10;;;5.78;;
4704;SDS011;2366;51.332;6.610;2023-03-21T12:05:59;8.32;;;5.43;;
4704;SDS011;2366;51.332;6.610;2023-03-21T12:08:31;13.82;;;6.57;;
4704;SDS011;2366;51.332;6.610;2023-03-21T12:11:16;11.43;;;6.63;;
4704;SDS011;2366;51.332;6.610;2023-03-21T12:21:50;16.08;;;8.13;;
4704;SDS011;2366;51.332;6.610;2023-03-21T12:24:31;12.70;;;6.93;;
4704;SDS011;2366;51.332;6.610;2023-03-21T12:27:23;14.82;;;9.77;;
4704;SDS011;2366;51.332;6.610;2023-03-21T12:30:12;17.58;;;7.95;;
4704;SDS011;2366;51.332;6.610;2023-03-21T12:35:43;15.60;;;7.18;;
4704;SDS011;2366;51.332;6.610;2023-03-21T12:38:21;14.50;;;8.20;;
4704;SDS011;2366;51.332;6.610;2023-03-21T12:41:11;12.45;;;8.70;;
4704;SDS011;2366;51.332;6.610;2023-03-21T12:43:47;11.48;;;7.82;;
4704;SDS011;2366;51.332;6.610;2023-03-21T12:46:25;18.75;;;10.45;;
4704;SDS011;2366;51.332;6.610;2023-03-21T12:49:12;9.52;;;7.40;;
4704;SDS011;2366;51.332;6.610;2023-03-21T12:52:14;18.40;;;9.23;;
4704;SDS011;2366;51.332;6.610;2023-03-21T12:54:55;15.07;;;8.70;;
4704;SDS011;2366;51.332;6.610;2023-03-21T12:57:29;17.45;;;8.55;;
4704;SDS011;2366;51.332;6.610;2023-03-21T13:00:06;15.93;;;8.35;;
4704;SDS011;2366;51.332;6.610;2023-03-21T13:02:41;13.00;;;9.05;;
4704;SDS011;2366;51.332;6.610;2023-03-21T13:07:44;18.15;;;8.15;;
4704;SDS011;2366;51.332;6.610;2023-03-21T13:10:15;10.57;;;8.45;;
4704;SDS011;2366;51.332;6.610;2023-03-21T13:18:09;10.70;;;7.57;;
4704;SDS011;2366;51.332;6.610;2023-03-21T13:21:01;12.60;;;8.77;;
4704;SDS011;2366;51.332;6.610;2023-03-21T13:23:36;11.93;;;7.30;;
4704;SDS011;2366;51.332;6.610;2023-03-21T13:26:06;13.60;;;8.85;;
4704;SDS011;2366;51.332;6.610;2023-03-21T13:28:34;14.15;;;6.05;;
4704;SDS011;2366;51.332;6.610;2023-03-21T13:31:23;8.82;;;7.18;;
4704;SDS011;2366;51.332;6.610;2023-03-21T13:33:51;8.40;;;5.85;;
4704;SDS011;2366;51.332;6.610;2023-03-21T13:36:23;21.15;;;10.57;;
4704;SDS011;2366;51.332;6.610;2023-03-21T13:38:51;12.40;;;7.20;;
4704;SDS011;2366;51.332;6.610;2023-03-21T13:41:21;9.63;;;7.28;;
4704;SDS011;2366;51.332;6.610;2023-03-21T13:44:05;15.05;;;8.13;;
4704;SDS011;2366;51.332;6.610;2023-03-21T13:46:43;15.25;;;7.60;;
4704;SDS011;2366;51.332;6.610;2023-03-21T13:49:35;10.68;;;6.88;;
4704;SDS011;2366;51.332;6.610;2023-03-21T13:56:59;12.40;;;7.90;;
4704;SDS011;2366;51.332;6.610;2023-03-21T13:59:38;11.68;;;7.07;;
4704;SDS011;2366;51.332;6.610;2023-03-21T14:04:36;9.13;;;5.80;;
4704;SDS011;2366;51.332;6.610;2023-03-21T14:07:11;10.00;;;5.78;;
4704;SDS011;2366;51.332;6.610;2023-03-21T14:09:47;11.65;;;5.57;;
4704;SDS011;2366;51.332;6.610;2023-03-21T14:12:16;7.60;;;5.30;;
4704;SDS011;2366;51.332;6.610;2023-03-21T14:14:56;6.97;;;5.18;;
4704;SDS011;2366;51.332;6.610;2023-03-21T14:17:32;13.20;;;5.78;;
4704;SDS011;2366;51.332;6.610;2023-03-21T14:22:26;8.13;;;5.80;;
4704;SDS011;2366;51.332;6.610;2023-03-21T14:24:57;8.32;;;5.78;;
4704;SDS011;2366;51.332;6.610;2023-03-21T14:27:24;11.00;;;6.35;;
4704;SDS011;2366;51.332;6.610;2023-03-21T14:29:54;7.18;;;5.47;;
4704;SDS011;2366;51.332;6.610;2023-03-21T14:32:24;6.85;;;5.72;;
4704;SDS011;2366;51.332;6.610;2023-03-21T14:34:53;10.95;;;6.65;;
4704;SDS011;2366;51.332;6.610;2023-03-21T14:37:33;11.02;;;5.93;;
4704;SDS011;2366;51.332;6.610;2023-03-21T14:40:04;8.10;;;6.07;;
4704;SDS011;2366;51.332;6.610;2023-03-21T14:42:33;10.45;;;6.28;;
4704;SDS011;2366;51.332;6.610;2023-03-21T14:45:05;12.52;;;6.82;;
4704;SDS011;2366;51.332;6.610;2023-03-21T14:47:39;13.18;;;7.45;;
4704;SDS011;2366;51.332;6.610;2023-03-21T14:50:05;9.03;;;6.17;;
4704;SDS011;2366;51.332;6.610;2023-03-21T14:52:34;8.25;;;5.80;;
4704;SDS011;2366;51.332;6.610;2023-03-21T14:55:01;10.02;;;7.53;;
4704;SDS011;2366;51.332;6.610;2023-03-21T14:57:35;9.98;;;7.22;;
4704;SDS011;2366;51.332;6.610;2023-03-21T15:00:03;10.43;;;6.25;;
4704;SDS011;2366;51.332;6.610;2023-03-21T15:02:37;7.50;;;5.82;;
4704;SDS011;2366;51.332;6.610;2023-03-21T15:05:17;9.20;;;5.93;;
4704;SDS011;2366;51.332;6.610;2023-03-21T15:07:51;10.07;;;7.05;;
4704;SDS011;2366;51.332;6.610;2023-03-21T15:10:22;10.50;;;6.85;;
4704;SDS011;2366;51.332;6.610;2023-03-21T15:12:50;6.63;;;5.35;;
4704;SDS011;2366;51.332;6.610;2023-03-21T15:15:19;6.63;;;5.80;;
4704;SDS011;2366;51.332;6.610;2023-03-21T15:17:46;12.50;;;6.22;;
4704;SDS011;2366;51.332;6.610;2023-03-21T15:20:14;8.63;;;5.50;;
4704;SDS011;2366;51.332;6.610;2023-03-21T15:22:41;12.15;;;6.75;;
4704;SDS011;2366;51.332;6.610;2023-03-21T15:25:13;10.60;;;6.43;;
4704;SDS011;2366;51.332;6.610;2023-03-21T15:27:43;9.02;;;5.70;;
4704;SDS011;2366;51.332;6.610;2023-03-21T15:30:19;9.97;;;6.50;;
4704;SDS011;2366;51.332;6.610;2023-03-21T15:32:50;8.07;;;6.88;;
4704;SDS011;2366;51.332;6.610;2023-03-21T15:35:19;10.13;;;5.97;;
4704;SDS011;2366;51.332;6.610;2023-03-21T15:37:56;8.70;;;6.53;;
4704;SDS011;2366;51.332;6.610;2023-03-21T15:40:24;11.75;;;6.28;;
4704;SDS011;2366;51.332;6.610;2023-03-21T15:45:50;11.15;;;6.00;;
4704;SDS011;2366;51.332;6.610;2023-03-21T15:48:23;7.68;;;5.57;;
4704;SDS011;2366;51.332;6.610;2023-03-21T15:50:58;9.88;;;6.95;;
4704;SDS011;2366;51.332;6.610;2023-03-21T15:53:33;9.85;;;7.22;;
4704;SDS011;2366;51.332;6.610;2023-03-21T15:56:00;8.73;;;5.82;;
4704;SDS011;2366;51.332;6.610;2023-03-21T15:58:30;8.93;;;5.38;;
4704;SDS011;2366;51.332;6.610;2023-03-21T16:01:00;8.10;;;5.80;;
4704;SDS011;2366;51.332;6.610;2023-03-21T16:03:30;9.63;;;6.30;;
4704;SDS011;2366;51.332;6.610;2023-03-21T16:08:27;10.75;;;6.60;;
4704;SDS011;2366;51.332;6.610;2023-03-21T16:14:04;7.43;;;6.13;;
4704;SDS011;2366;51.332;6.610;2023-03-21T16:16:30;10.73;;;6.20;;
4704;SDS011;2366;51.332;6.610;2023-03-21T16:18:56;8.70;;;5.90;;
4704;SDS011;2366;51.332;6.610;2023-03-21T16:21:27;8.93;;;6.20;;
4704;SDS011;2366;51.332;6.610;2023-03-21T16:23:54;9.35;;;6.13;;
4704;SDS011;2366;51.332;6.610;2023-03-21T16:26:21;8.88;;;5.72;;
4704;SDS011;2366;51.332;6.610;2023-03-21T16:28:48;6.80;;;6.10;;
4704;SDS011;2366;51.332;6.610;2023-03-21T16:31:16;12.20;;;6.15;;
4704;SDS011;2366;51.332;6.610;2023-03-21T16:33:49;5.88;;;5.25;;